createdAt,value
2023-02-03T00:00:24.729Z,8.90
2023-02-03T00:01:24.688Z,10.10
2023-02-03T00:02:24.467Z,10.00
2023-02-03T00:03:24.708Z,9.70
2023-02-03T00:04:24.463Z,10.70
2023-02-03T00:05:24.448Z,10.30
2023-02-03T00:06:24.426Z,10.50
2023-02-03T00:07:24.425Z,9.80
2023-02-03T00:08:24.447Z,9.30
2023-02-03T00:09:24.395Z,10.40
2023-02-03T00:10:24.697Z,10.40
2023-02-03T00:11:24.368Z,11.00
2023-02-03T00:12:24.341Z,10.40
2023-02-03T00:13:24.367Z,10.10
2023-02-03T00:14:24.315Z,10.10
2023-02-03T00:15:24.311Z,10.00
2023-02-03T00:16:24.412Z,10.30
2023-02-03T00:17:24.280Z,10.10
2023-02-03T00:18:24.296Z,9.60
2023-02-03T00:19:24.261Z,10.90
2023-02-03T00:20:24.529Z,10.80
2023-02-03T00:21:24.247Z,10.00
2023-02-03T00:22:24.206Z,9.90
2023-02-03T00:23:24.227Z,10.20
2023-02-03T00:24:24.189Z,9.60
2023-02-03T00:25:24.188Z,10.50
2023-02-03T00:26:24.190Z,10.00
2023-02-03T00:27:24.157Z,9.80
2023-02-03T00:28:24.160Z,9.40
2023-02-03T00:29:24.143Z,10.20
2023-02-03T00:30:24.571Z,9.80
2023-02-03T00:31:24.208Z,9.60
2023-02-03T00:32:24.206Z,10.60
2023-02-03T00:33:24.112Z,10.70
2023-02-03T00:34:24.054Z,10.40
2023-02-03T00:35:24.054Z,8.40
2023-02-03T00:36:24.045Z,9.10
2023-02-03T00:37:24.018Z,10.40
2023-02-03T00:38:24.050Z,9.00
2023-02-03T00:39:23.994Z,9.80
2023-02-03T00:40:24.294Z,10.70
2023-02-03T00:41:23.984Z,9.60
2023-02-03T00:42:23.936Z,10.90
2023-02-03T00:43:23.964Z,9.80
2023-02-03T00:44:23.948Z,9.50
2023-02-03T00:45:23.934Z,9.50
2023-02-03T00:46:23.895Z,9.40
2023-02-03T00:47:23.899Z,9.50
2023-02-03T00:48:23.895Z,10.00
2023-02-03T00:49:23.865Z,10.40
2023-02-03T00:50:23.938Z,9.70
2023-02-03T00:51:23.841Z,9.40
2023-02-03T00:52:23.814Z,9.60
2023-02-03T00:53:23.868Z,9.30
2023-02-03T00:54:23.793Z,9.60
2023-02-03T00:55:23.787Z,9.40
2023-02-03T00:56:23.773Z,9.80
2023-02-03T00:57:23.744Z,9.60
2023-02-03T00:58:23.806Z,9.20
2023-02-03T00:59:23.723Z,8.80
2023-02-03T01:00:24.309Z,9.10
2023-02-03T01:01:23.776Z,9.10
2023-02-03T01:02:23.817Z,8.90
2023-02-03T01:03:23.704Z,8.40
2023-02-03T01:04:23.684Z,8.50
2023-02-03T01:05:23.654Z,8.80
2023-02-03T01:06:23.624Z,10.20
2023-02-03T01:07:23.629Z,9.70
2023-02-03T01:08:23.677Z,9.80
2023-02-03T01:09:23.598Z,9.00
2023-02-03T01:10:23.671Z,9.40
2023-02-03T01:11:23.641Z,9.60
2023-02-03T01:12:23.556Z,10.10
2023-02-03T01:13:23.584Z,10.10
2023-02-03T01:14:23.524Z,9.30
2023-02-03T01:15:23.540Z,9.80
2023-02-03T01:16:23.545Z,9.50
2023-02-03T01:17:23.481Z,10.60
2023-02-03T01:18:23.516Z,9.40
2023-02-03T01:19:23.471Z,9.90
2023-02-03T01:20:23.454Z,9.10
2023-02-03T01:21:23.439Z,10.10
2023-02-03T01:22:23.428Z,9.50
2023-02-03T01:23:23.443Z,10.10
2023-02-03T01:24:23.392Z,9.50
2023-02-03T01:25:23.392Z,9.60
2023-02-03T01:26:23.363Z,10.50
2023-02-03T01:27:23.368Z,10.00
2023-02-03T01:28:23.371Z,9.70
2023-02-03T01:29:23.328Z,8.80
2023-02-03T01:30:23.507Z,8.90
2023-02-03T01:31:23.464Z,9.70
2023-02-03T01:32:23.286Z,9.20
2023-02-03T01:33:23.311Z,9.40
2023-02-03T01:34:23.260Z,9.50
2023-02-03T01:35:23.252Z,9.40
2023-02-03T01:36:23.222Z,10.40
2023-02-03T01:37:23.241Z,10.00
2023-02-03T01:38:23.212Z,9.80
2023-02-03T01:39:23.241Z,10.30
2023-02-03T01:40:23.204Z,10.10
2023-02-03T01:41:23.174Z,10.30
2023-02-03T01:42:23.150Z,10.30
2023-02-03T01:43:23.203Z,9.50
2023-02-03T01:44:23.153Z,9.70
2023-02-03T01:45:23.113Z,9.30
2023-02-03T01:46:23.164Z,8.90
2023-02-03T01:47:23.127Z,9.10
2023-02-03T01:48:23.080Z,9.20
2023-02-03T01:49:23.089Z,9.50
2023-02-03T01:50:23.085Z,9.20
2023-02-03T01:51:23.038Z,9.50
2023-02-03T01:52:23.020Z,9.20
2023-02-03T01:53:23.006Z,9.50
2023-02-03T01:54:23.023Z,10.70
2023-02-03T01:55:22.991Z,9.70
2023-02-03T01:56:22.968Z,8.80
2023-02-03T01:57:22.987Z,9.70
2023-02-03T01:58:22.940Z,9.10
2023-02-03T01:59:22.972Z,9.40
2023-02-03T02:00:22.927Z,9.00
2023-02-03T02:01:22.968Z,8.40
2023-02-03T02:02:22.940Z,9.20
2023-02-03T02:03:22.878Z,8.70
2023-02-03T02:04:22.906Z,9.30
2023-02-03T02:05:22.869Z,9.30
2023-02-03T02:06:22.840Z,9.30
2023-02-03T02:07:22.842Z,10.10
2023-02-03T02:08:22.806Z,8.50
2023-02-03T02:09:22.831Z,10.20
2023-02-03T02:10:22.776Z,9.10
2023-02-03T02:11:22.785Z,9.50
2023-02-03T02:12:22.759Z,9.20
2023-02-03T02:13:22.795Z,9.20
2023-02-03T02:14:22.766Z,9.10
2023-02-03T02:15:22.717Z,9.20
2023-02-03T02:16:23.464Z,8.80
2023-02-03T02:17:22.729Z,9.10
2023-02-03T02:18:22.697Z,10.00
2023-02-03T02:19:22.706Z,9.20
2023-02-03T02:20:22.707Z,8.70
2023-02-03T02:21:22.661Z,8.80
2023-02-03T02:22:22.664Z,9.00
2023-02-03T02:23:22.617Z,10.10
2023-02-03T02:24:22.660Z,9.00
2023-02-03T02:25:22.639Z,9.60
2023-02-03T02:26:22.579Z,9.20
2023-02-03T02:27:22.567Z,9.10
2023-02-03T02:28:22.546Z,8.80
2023-02-03T02:29:22.592Z,9.00
2023-02-03T02:30:22.516Z,9.30
2023-02-03T02:31:22.674Z,9.20
2023-02-03T02:32:22.489Z,9.50
2023-02-03T02:33:22.494Z,9.60
2023-02-03T02:34:22.515Z,9.40
2023-02-03T02:35:22.456Z,9.50
2023-02-03T02:36:22.437Z,8.40
2023-02-03T02:37:22.433Z,9.30
2023-02-03T02:38:22.417Z,8.80
2023-02-03T02:39:22.454Z,8.90
2023-02-03T02:40:22.395Z,9.00
2023-02-03T02:41:22.392Z,9.00
2023-02-03T02:42:22.355Z,8.30
2023-02-03T02:43:22.362Z,9.10
2023-02-03T02:44:22.357Z,8.50
2023-02-03T02:45:22.316Z,9.20
2023-02-03T02:46:22.372Z,8.40
2023-02-03T02:47:22.328Z,9.10
2023-02-03T02:48:22.283Z,9.90
2023-02-03T02:49:22.305Z,9.00
2023-02-03T02:50:22.254Z,8.60
2023-02-03T02:51:22.259Z,8.60
2023-02-03T02:52:22.252Z,9.00
2023-02-03T02:53:22.216Z,8.70
2023-02-03T02:54:22.230Z,8.30
2023-02-03T02:55:22.199Z,8.30
2023-02-03T02:56:22.718Z,9.00
2023-02-03T02:57:22.163Z,8.70
2023-02-03T02:58:22.181Z,8.50
2023-02-03T02:59:22.175Z,8.60
2023-02-03T03:00:22.138Z,8.80
2023-02-03T03:01:22.125Z,8.90
2023-02-03T03:02:22.120Z,8.20
2023-02-03T03:03:22.100Z,8.40
2023-02-03T03:04:22.118Z,8.70
2023-02-03T03:05:22.061Z,8.30
2023-02-03T03:06:22.084Z,8.70
2023-02-03T03:07:22.043Z,8.40
2023-02-03T03:08:22.023Z,8.10
2023-02-03T03:09:22.055Z,8.60
2023-02-03T03:10:21.993Z,8.70
2023-02-03T03:11:22.028Z,9.10
2023-02-03T03:12:21.973Z,9.20
2023-02-03T03:13:21.954Z,9.30
2023-02-03T03:14:21.969Z,8.40
2023-02-03T03:15:21.931Z,8.70
2023-02-03T03:16:21.982Z,8.60
2023-02-03T03:17:21.901Z,8.00
2023-02-03T03:18:21.907Z,9.00
2023-02-03T03:19:21.941Z,8.80
2023-02-03T03:20:21.872Z,7.60
2023-02-03T03:21:21.864Z,7.80
2023-02-03T03:22:21.906Z,9.40
2023-02-03T03:23:21.825Z,8.20
2023-02-03T03:24:21.853Z,8.70
2023-02-03T03:25:21.802Z,8.50
2023-02-03T03:26:21.780Z,7.90
2023-02-03T03:27:21.780Z,8.20
2023-02-03T03:28:21.750Z,8.30
2023-02-03T03:29:21.740Z,9.00
2023-02-03T03:30:21.763Z,8.50
2023-02-03T03:31:21.804Z,8.30
2023-02-03T03:32:21.720Z,8.30
2023-02-03T03:33:21.691Z,8.70
2023-02-03T03:34:21.668Z,8.20
2023-02-03T03:35:21.699Z,8.90
2023-02-03T03:36:21.701Z,8.30
2023-02-03T03:37:21.641Z,8.60
2023-02-03T03:38:21.840Z,7.40
2023-02-03T03:39:21.608Z,8.00
2023-02-03T03:40:21.629Z,7.80
2023-02-03T03:41:21.591Z,8.40
2023-02-03T03:42:21.568Z,8.90
2023-02-03T03:43:21.558Z,8.20
2023-02-03T03:44:21.539Z,8.80
2023-02-03T03:45:21.654Z,7.70
2023-02-03T03:46:21.637Z,7.50
2023-02-03T03:47:21.499Z,7.70
2023-02-03T03:48:21.499Z,7.20
2023-02-03T03:49:21.490Z,7.50
2023-02-03T03:50:21.503Z,7.20
2023-02-03T03:51:21.449Z,7.80
2023-02-03T03:52:21.467Z,7.20
2023-02-03T03:53:21.429Z,8.20
2023-02-03T03:54:21.422Z,8.00
2023-02-03T03:55:21.456Z,8.50
2023-02-03T03:56:21.389Z,7.60
2023-02-03T03:57:21.371Z,8.60
2023-02-03T03:58:21.368Z,8.30
2023-02-03T03:59:21.352Z,7.60
2023-02-03T04:00:21.404Z,6.80
2023-02-03T04:01:21.409Z,7.50
2023-02-03T04:02:21.340Z,7.90
2023-02-03T04:03:21.346Z,7.00
2023-02-03T04:04:21.311Z,7.40
2023-02-03T04:05:21.299Z,7.60
2023-02-03T04:06:21.264Z,7.90
2023-02-03T04:07:21.246Z,8.10
2023-02-03T04:08:21.235Z,8.20
2023-02-03T04:09:21.213Z,7.80
2023-02-03T04:10:21.243Z,8.10
2023-02-03T04:11:21.186Z,7.20
2023-02-03T04:12:21.189Z,7.50
2023-02-03T04:13:21.168Z,7.50
2023-02-03T04:14:21.153Z,7.50
2023-02-03T04:15:21.177Z,8.00
2023-02-03T04:16:21.251Z,7.40
2023-02-03T04:17:21.140Z,8.10
2023-02-03T04:18:21.104Z,7.80
2023-02-03T04:19:21.085Z,7.70
2023-02-03T04:20:21.102Z,7.80
2023-02-03T04:21:21.079Z,7.40
2023-02-03T04:22:21.153Z,8.10
2023-02-03T04:23:21.049Z,8.10
2023-02-03T04:24:21.028Z,7.50
2023-02-03T04:25:21.065Z,7.60
2023-02-03T04:26:20.997Z,7.80
2023-02-03T04:27:20.975Z,7.70
2023-02-03T04:28:21.006Z,7.20
2023-02-03T04:29:20.947Z,7.10
2023-02-03T04:30:21.001Z,8.10
2023-02-03T04:31:21.064Z,8.20
2023-02-03T04:32:20.914Z,7.10
2023-02-03T04:33:20.925Z,6.80
2023-02-03T04:34:20.884Z,8.50
2023-02-03T04:35:20.896Z,7.80
2023-02-03T04:36:20.853Z,6.80
2023-02-03T04:37:20.842Z,7.00
2023-02-03T04:38:20.860Z,7.10
2023-02-03T04:39:20.839Z,7.20
2023-02-03T04:40:20.835Z,7.00
2023-02-03T04:41:20.797Z,6.70
2023-02-03T04:42:21.577Z,7.60
2023-02-03T04:43:20.763Z,6.90
2023-02-03T04:44:20.757Z,7.30
2023-02-03T04:45:20.775Z,7.70
2023-02-03T04:46:20.734Z,6.70
2023-02-03T04:47:20.722Z,6.70
2023-02-03T04:48:20.703Z,7.90
2023-02-03T04:49:20.697Z,6.90
2023-02-03T04:50:20.692Z,7.10
2023-02-03T04:51:20.665Z,7.40
2023-02-03T04:52:20.650Z,7.10
2023-02-03T04:53:20.628Z,7.30
2023-02-03T04:54:20.623Z,6.80
2023-02-03T04:55:20.689Z,6.70
2023-02-03T04:56:20.736Z,6.30
2023-02-03T04:57:20.577Z,6.90
2023-02-03T04:58:20.592Z,7.50
2023-02-03T04:59:20.552Z,6.60
2023-02-03T05:00:20.574Z,6.50
2023-02-03T05:01:20.645Z,5.90
2023-02-03T05:02:20.541Z,6.70
2023-02-03T05:03:20.570Z,6.80
2023-02-03T05:04:20.518Z,6.70
2023-02-03T05:05:20.504Z,6.50
2023-02-03T05:06:20.477Z,5.90
2023-02-03T05:07:21.226Z,6.50
2023-02-03T05:08:20.449Z,7.50
2023-02-03T05:09:20.412Z,6.50
2023-02-03T05:10:20.441Z,6.10
2023-02-03T05:11:20.437Z,6.50
2023-02-03T05:12:20.391Z,7.10
2023-02-03T05:13:20.363Z,6.60
2023-02-03T05:14:20.353Z,6.90
2023-02-03T05:15:20.392Z,6.60
2023-02-03T05:16:20.376Z,6.40
2023-02-03T05:17:20.309Z,6.60
2023-02-03T05:18:20.308Z,6.50
2023-02-03T05:19:20.409Z,6.10
2023-02-03T05:20:20.322Z,6.70
2023-02-03T05:21:20.260Z,7.00
2023-02-03T05:22:20.257Z,6.20
2023-02-03T05:23:20.233Z,6.50
2023-02-03T05:24:20.223Z,6.10
2023-02-03T05:25:20.250Z,6.20
2023-02-03T05:26:20.209Z,6.10
2023-02-03T05:27:20.180Z,6.60
2023-02-03T05:28:20.173Z,6.10
2023-02-03T05:29:20.175Z,6.30
2023-02-03T05:30:20.184Z,5.70
2023-02-03T05:31:20.208Z,6.10
2023-02-03T05:32:20.138Z,6.70
2023-02-03T05:33:20.100Z,5.40
2023-02-03T05:34:20.092Z,6.50
2023-02-03T05:35:20.178Z,6.00
2023-02-03T05:36:20.149Z,6.30
2023-02-03T05:37:20.240Z,6.40
2023-02-03T05:38:20.058Z,5.70
2023-02-03T05:39:20.032Z,6.00
2023-02-03T05:40:20.050Z,6.00
2023-02-03T05:41:20.122Z,6.40
2023-02-03T05:42:20.002Z,5.70
2023-02-03T05:43:19.995Z,5.80
2023-02-03T05:44:19.967Z,5.70
2023-02-03T05:45:20.035Z,5.80
2023-02-03T05:46:19.939Z,6.30
2023-02-03T05:47:20.071Z,5.40
2023-02-03T05:48:19.958Z,5.50
2023-02-03T05:49:19.971Z,6.40
2023-02-03T05:50:20.025Z,5.60
2023-02-03T05:51:19.873Z,5.80
2023-02-03T05:52:19.872Z,5.50
2023-02-03T05:53:19.839Z,5.70
2023-02-03T05:54:19.847Z,5.40
2023-02-03T05:55:19.870Z,5.80
2023-02-03T05:56:19.871Z,5.30
2023-02-03T05:57:19.810Z,5.20
2023-02-03T05:58:19.768Z,5.50
2023-02-03T05:59:19.758Z,4.80
2023-02-03T06:00:19.785Z,5.10
2023-02-03T06:01:19.752Z,5.40
2023-02-03T06:02:19.739Z,5.00
2023-02-03T06:03:19.741Z,4.70
2023-02-03T06:04:19.759Z,5.90
2023-02-03T06:05:19.717Z,5.10
2023-02-03T06:06:19.667Z,5.20
2023-02-03T06:07:19.677Z,5.50
2023-02-03T06:08:19.669Z,4.80
2023-02-03T06:09:19.632Z,4.90
2023-02-03T06:10:19.656Z,5.30
2023-02-03T06:11:19.607Z,5.40
2023-02-03T06:12:19.627Z,5.00
2023-02-03T06:13:19.565Z,5.50
2023-02-03T06:14:19.584Z,4.90
2023-02-03T06:15:19.595Z,4.70
2023-02-03T06:16:19.560Z,5.60
2023-02-03T06:17:19.536Z,5.00
2023-02-03T06:18:19.516Z,4.80
2023-02-03T06:19:19.562Z,4.40
2023-02-03T06:20:19.515Z,4.70
2023-02-03T06:21:19.485Z,5.10
2023-02-03T06:22:19.477Z,5.00
2023-02-03T06:23:19.456Z,4.80
2023-02-03T06:24:19.435Z,4.50
2023-02-03T06:25:19.489Z,4.60
2023-02-03T06:26:19.408Z,5.10
2023-02-03T06:27:19.402Z,4.50
2023-02-03T06:28:19.473Z,5.40
2023-02-03T06:29:19.423Z,4.40
2023-02-03T06:30:19.385Z,5.10
2023-02-03T06:31:19.470Z,5.30
2023-02-03T06:32:19.331Z,4.90
2023-02-03T06:33:19.321Z,5.40
2023-02-03T06:34:19.324Z,5.30
2023-02-03T06:35:19.270Z,5.20
2023-02-03T06:36:19.243Z,5.70
2023-02-03T06:37:19.223Z,5.40
2023-02-03T06:38:19.234Z,5.10
2023-02-03T06:39:19.257Z,5.70
2023-02-03T06:40:19.396Z,5.60
2023-02-03T06:41:19.152Z,5.00
2023-02-03T06:42:19.205Z,5.10
2023-02-03T06:43:19.143Z,5.20
2023-02-03T06:44:19.142Z,4.90
2023-02-03T06:45:19.310Z,5.60
2023-02-03T06:46:19.272Z,5.00
2023-02-03T06:47:19.274Z,5.00
2023-02-03T06:48:19.069Z,4.90
2023-02-03T06:49:19.055Z,5.00
2023-02-03T06:50:19.083Z,5.50
2023-02-03T06:51:19.022Z,4.80
2023-02-03T06:52:19.026Z,5.20
2023-02-03T06:53:19.002Z,5.10
2023-02-03T06:54:18.984Z,5.30
2023-02-03T06:55:19.079Z,4.80
2023-02-03T06:56:18.966Z,4.60
2023-02-03T06:57:19.132Z,4.80
2023-02-03T06:58:19.011Z,4.90
2023-02-03T06:59:18.910Z,4.60
2023-02-03T07:00:26.170Z,5.40
2023-02-03T07:01:20.287Z,4.60
2023-02-03T07:02:18.944Z,4.50
2023-02-03T07:03:18.940Z,5.60
2023-02-03T07:04:19.995Z,4.80
2023-02-03T07:05:18.866Z,5.10
2023-02-03T07:06:18.895Z,4.10
2023-02-03T07:07:19.070Z,4.10
2023-02-03T07:08:18.876Z,4.20
2023-02-03T07:09:18.931Z,4.70
2023-02-03T07:10:19.052Z,4.80
2023-02-03T07:11:19.774Z,4.60
2023-02-03T07:12:18.748Z,4.40
2023-02-03T07:13:19.072Z,4.20
2023-02-03T07:14:18.889Z,4.10
2023-02-03T07:15:18.996Z,4.20
2023-02-03T07:16:18.784Z,3.90
2023-02-03T07:17:18.787Z,3.70
2023-02-03T07:18:43.469Z,3.60
2023-02-03T07:19:19.666Z,3.70
2023-02-03T07:20:18.788Z,4.00
2023-02-03T07:21:19.474Z,3.70
2023-02-03T07:22:18.622Z,4.10
2023-02-03T07:23:18.666Z,4.30
2023-02-03T07:24:18.665Z,4.60
2023-02-03T07:25:18.701Z,4.00
2023-02-03T07:26:18.611Z,4.00
2023-02-03T07:27:18.579Z,4.30
2023-02-03T07:28:18.643Z,4.10
2023-02-03T07:29:18.553Z,4.10
2023-02-03T07:30:18.588Z,4.30
2023-02-03T07:31:18.595Z,3.60
2023-02-03T07:32:18.477Z,3.50
2023-02-03T07:33:18.459Z,3.70
2023-02-03T07:34:18.458Z,3.30
2023-02-03T07:35:18.480Z,3.00
2023-02-03T07:36:18.440Z,3.20
2023-02-03T07:37:18.490Z,2.60
2023-02-03T07:38:18.613Z,3.10
2023-02-03T07:39:18.557Z,2.90
2023-02-03T07:40:18.464Z,2.70
2023-02-03T07:41:18.452Z,2.40
2023-02-03T07:42:18.353Z,3.20
2023-02-03T07:43:18.366Z,2.60
2023-02-03T07:44:18.329Z,3.20
2023-02-03T07:45:19.287Z,2.90
2023-02-03T07:46:18.360Z,3.10
2023-02-03T07:47:18.368Z,2.40
2023-02-03T07:48:18.267Z,3.00
2023-02-03T07:49:18.313Z,2.60
2023-02-03T07:50:18.277Z,2.90
2023-02-03T07:51:18.233Z,2.90
2023-02-03T07:52:18.225Z,3.20
2023-02-03T07:53:18.209Z,3.50
2023-02-03T07:54:18.194Z,3.50
2023-02-03T07:55:18.196Z,2.60
2023-02-03T07:56:18.163Z,3.00
2023-02-03T07:57:18.196Z,3.30
2023-02-03T07:58:18.138Z,2.90
2023-02-03T07:59:18.122Z,3.30
2023-02-03T08:00:18.181Z,3.00
2023-02-03T08:01:18.127Z,2.60
2023-02-03T08:02:18.095Z,3.10
2023-02-03T08:03:18.076Z,2.80
2023-02-03T08:04:18.056Z,2.80
2023-02-03T08:05:18.094Z,2.80
2023-02-03T08:06:18.050Z,2.80
2023-02-03T08:07:18.014Z,3.00
2023-02-03T08:08:18.003Z,2.90
2023-02-03T08:09:18.123Z,2.90
2023-02-03T08:10:18.009Z,3.20
2023-02-03T08:11:17.966Z,2.80
2023-02-03T08:12:17.958Z,3.60
2023-02-03T08:13:17.961Z,3.10
2023-02-03T08:14:17.935Z,3.30
2023-02-03T08:15:17.937Z,3.10
2023-02-03T08:16:17.963Z,3.20
2023-02-03T08:17:17.884Z,3.50
2023-02-03T08:18:17.887Z,2.70
2023-02-03T08:19:17.864Z,3.30
2023-02-03T08:20:17.958Z,3.20
2023-02-03T08:21:17.836Z,2.60
2023-02-03T08:22:17.825Z,3.20
2023-02-03T08:23:17.813Z,3.20
2023-02-03T08:24:17.824Z,3.20
2023-02-03T08:25:20.547Z,3.70
2023-02-03T08:26:17.762Z,3.60
2023-02-03T08:27:17.762Z,3.50
2023-02-03T08:28:17.773Z,3.80
2023-02-03T08:29:17.732Z,4.10
2023-02-03T08:30:17.782Z,3.40
2023-02-03T08:31:17.790Z,4.00
2023-02-03T08:32:17.749Z,3.70
2023-02-03T08:33:17.676Z,3.90
2023-02-03T08:34:17.657Z,3.50
2023-02-03T08:35:17.683Z,3.80
2023-02-03T08:36:17.641Z,3.60
2023-02-03T08:37:17.733Z,3.40
2023-02-03T08:38:17.618Z,3.80
2023-02-03T08:39:17.591Z,3.70
2023-02-03T08:40:17.612Z,3.80
2023-02-03T08:41:17.573Z,3.80
2023-02-03T08:42:17.554Z,4.50
2023-02-03T08:43:17.558Z,3.70
2023-02-03T08:44:17.536Z,4.60
2023-02-03T08:45:17.747Z,3.90
2023-02-03T08:46:17.543Z,4.10
2023-02-03T08:47:17.494Z,4.40
2023-02-03T08:48:17.470Z,4.60
2023-02-03T08:49:17.472Z,4.40
2023-02-03T08:50:17.481Z,4.40
2023-02-03T08:51:17.472Z,3.70
2023-02-03T08:52:19.019Z,3.90
2023-02-03T08:53:17.414Z,3.90
2023-02-03T08:54:17.389Z,3.80
2023-02-03T08:55:17.380Z,3.80
2023-02-03T08:56:17.412Z,3.20
2023-02-03T08:57:17.379Z,3.50
2023-02-03T08:58:17.344Z,3.50
2023-02-03T08:59:17.350Z,3.70
2023-02-03T09:00:17.325Z,3.30
2023-02-03T09:01:17.430Z,3.00
2023-02-03T09:02:17.288Z,3.50
2023-02-03T09:03:17.310Z,3.20
2023-02-03T09:04:17.271Z,3.50
2023-02-03T09:05:17.260Z,3.00
2023-02-03T09:06:17.270Z,5.30
2023-02-03T09:07:17.229Z,3.30
2023-02-03T09:08:17.208Z,3.50
2023-02-03T09:09:17.221Z,3.10
2023-02-03T09:10:17.178Z,3.70
2023-02-03T09:11:17.212Z,2.90
2023-02-03T09:12:17.239Z,3.50
2023-02-03T09:13:17.171Z,3.90
2023-02-03T09:14:17.145Z,3.50
2023-02-03T09:15:17.134Z,3.40
2023-02-03T09:16:17.435Z,3.30
2023-02-03T09:17:17.098Z,3.20
2023-02-03T09:18:17.079Z,3.30
2023-02-03T09:19:17.078Z,3.40
2023-02-03T09:20:17.156Z,3.50
2023-02-03T09:21:31.587Z,4.10
2023-02-03T09:22:18.167Z,3.70
2023-02-03T09:23:17.021Z,3.90
2023-02-03T09:24:17.008Z,3.70
2023-02-03T09:25:16.988Z,3.60
2023-02-03T09:26:17.059Z,4.30
2023-02-03T09:27:17.084Z,3.80
2023-02-03T09:28:17.031Z,4.00
2023-02-03T09:29:17.037Z,3.90
2023-02-03T09:30:16.927Z,4.00
2023-02-03T09:31:17.080Z,3.90
2023-02-03T09:32:21.199Z,4.50
2023-02-03T09:33:16.943Z,4.10
2023-02-03T09:34:16.877Z,4.20
2023-02-03T09:35:17.028Z,4.20
2023-02-03T09:36:17.683Z,4.80
2023-02-03T09:37:16.959Z,4.80
2023-02-03T09:38:16.845Z,4.80
2023-02-03T09:39:16.828Z,4.90
2023-02-03T09:40:16.804Z,4.80
2023-02-03T09:41:16.891Z,4.60
2023-02-03T09:42:16.765Z,5.00
2023-02-03T09:43:17.526Z,4.40
2023-02-03T09:44:16.755Z,4.80
2023-02-03T09:45:16.724Z,4.50
2023-02-03T09:46:16.773Z,4.50
2023-02-03T09:47:16.697Z,4.60
2023-02-03T09:48:16.685Z,4.10
2023-02-03T09:49:16.688Z,4.90
2023-02-03T09:50:16.662Z,4.40
2023-02-03T09:51:16.695Z,3.80
2023-02-03T09:52:16.646Z,4.50
2023-02-03T09:53:16.713Z,4.50
2023-02-03T09:54:16.621Z,4.80
2023-02-03T09:55:16.681Z,4.50
2023-02-03T09:56:16.604Z,4.00
2023-02-03T09:57:16.578Z,4.20
2023-02-03T09:58:16.566Z,4.40
2023-02-03T09:59:16.545Z,4.20
2023-02-03T10:00:16.543Z,3.60
2023-02-03T10:01:16.620Z,4.20
2023-02-03T10:02:18.541Z,4.20
2023-02-03T10:03:16.503Z,4.40
2023-02-03T10:04:16.521Z,4.10
2023-02-03T10:05:16.518Z,4.80
2023-02-03T10:06:16.565Z,4.70
2023-02-03T10:07:16.446Z,4.60
2023-02-03T10:08:16.420Z,3.80
2023-02-03T10:09:16.439Z,4.80
2023-02-03T10:10:16.403Z,4.10
2023-02-03T10:11:16.417Z,4.00
2023-02-03T10:12:16.365Z,4.40
2023-02-03T10:13:16.398Z,4.80
2023-02-03T10:14:16.356Z,4.80
2023-02-03T10:15:16.331Z,4.20
2023-02-03T10:16:16.768Z,4.40
2023-02-03T10:17:16.312Z,4.10
2023-02-03T10:18:17.083Z,4.30
2023-02-03T10:19:16.280Z,4.10
2023-02-03T10:20:16.280Z,4.50
2023-02-03T10:21:16.324Z,4.20
2023-02-03T10:22:16.230Z,3.80
2023-02-03T10:23:16.236Z,3.70
2023-02-03T10:24:16.201Z,4.10
2023-02-03T10:25:16.206Z,3.70
2023-02-03T10:26:16.231Z,3.80
2023-02-03T10:27:16.212Z,3.30
2023-02-03T10:28:16.224Z,3.70
2023-02-03T10:29:16.139Z,4.10
2023-02-03T10:30:16.130Z,4.20
2023-02-03T10:31:17.188Z,3.70
2023-02-03T10:32:16.159Z,3.20
2023-02-03T10:33:16.089Z,3.40
2023-02-03T10:34:16.112Z,3.80
2023-02-03T10:35:16.060Z,3.60
2023-02-03T10:36:16.092Z,3.60
2023-02-03T10:37:16.121Z,3.50
2023-02-03T10:38:16.023Z,3.80
2023-02-03T10:39:16.021Z,3.40
2023-02-03T10:40:15.994Z,3.60
2023-02-03T10:41:16.070Z,3.40
2023-02-03T10:42:16.031Z,3.40
2023-02-03T10:43:15.953Z,3.40
2023-02-03T10:44:20.141Z,2.80
2023-02-03T10:45:16.542Z,3.20
2023-02-03T10:46:16.744Z,3.40
2023-02-03T10:47:16.051Z,3.10
2023-02-03T10:48:15.894Z,2.90
2023-02-03T10:49:16.800Z,2.60
2023-02-03T10:50:16.529Z,2.40
2023-02-03T10:51:20.518Z,2.20
2023-02-03T10:52:16.989Z,2.20
2023-02-03T10:53:16.031Z,2.30
2023-02-03T10:54:16.885Z,1.80
2023-02-03T10:55:15.989Z,2.20
2023-02-03T10:56:15.790Z,2.30
2023-02-03T10:57:15.807Z,3.00
2023-02-03T10:58:15.790Z,2.60
2023-02-03T10:59:15.740Z,2.60
2023-02-03T11:00:15.728Z,2.30
2023-02-03T11:01:15.790Z,1.90
2023-02-03T11:02:15.722Z,2.50
2023-02-03T11:03:15.883Z,2.00
2023-02-03T11:04:15.677Z,2.00
2023-02-03T11:05:15.670Z,2.40
2023-02-03T11:06:15.659Z,2.30
2023-02-03T11:07:15.646Z,2.20
2023-02-03T11:08:15.666Z,2.10
2023-02-03T11:09:15.617Z,2.40
2023-02-03T11:10:15.595Z,2.70
2023-02-03T11:11:15.592Z,2.50
2023-02-03T11:12:15.575Z,2.20
2023-02-03T11:13:15.607Z,1.40
2023-02-03T11:14:15.542Z,2.00
2023-02-03T11:15:15.542Z,2.00
2023-02-03T11:16:15.607Z,1.60
2023-02-03T11:17:15.526Z,2.60
2023-02-03T11:18:15.526Z,2.40
2023-02-03T11:19:15.498Z,2.00
2023-02-03T11:20:15.458Z,2.00
2023-02-03T11:21:15.531Z,1.80
2023-02-03T11:22:15.439Z,1.90
2023-02-03T11:23:15.460Z,1.90
2023-02-03T11:24:15.418Z,2.00
2023-02-03T11:25:15.439Z,2.20
2023-02-03T11:26:15.387Z,2.20
2023-02-03T11:27:15.385Z,2.00
2023-02-03T11:28:15.445Z,2.50
2023-02-03T11:29:15.345Z,1.90
2023-02-03T11:30:15.333Z,1.80
2023-02-03T11:31:15.406Z,1.80
2023-02-03T11:32:15.461Z,1.80
2023-02-03T11:33:15.335Z,2.00
2023-02-03T11:34:15.294Z,2.30
2023-02-03T11:35:15.274Z,2.00
2023-02-03T11:36:15.263Z,2.00
2023-02-03T11:37:15.248Z,2.30
2023-02-03T11:38:15.264Z,2.30
2023-02-03T11:39:15.240Z,2.70
2023-02-03T11:40:15.221Z,2.30
2023-02-03T11:41:15.214Z,2.30
2023-02-03T11:42:15.423Z,2.10
2023-02-03T11:43:15.207Z,2.70
2023-02-03T11:44:15.143Z,2.20
2023-02-03T11:45:15.185Z,2.20
2023-02-03T11:46:15.194Z,2.10
2023-02-03T11:47:15.123Z,2.30
2023-02-03T11:48:18.701Z,2.00
2023-02-03T11:49:15.262Z,2.20
2023-02-03T11:50:15.074Z,2.20
2023-02-03T11:51:15.664Z,2.20
2023-02-03T11:52:15.043Z,2.60
2023-02-03T11:53:15.072Z,2.10
2023-02-03T11:54:15.524Z,1.90
2023-02-03T11:55:15.063Z,2.20
2023-02-03T11:56:15.159Z,2.30
2023-02-03T11:57:15.102Z,1.80
2023-02-03T11:58:14.966Z,2.00
2023-02-03T11:59:15.615Z,1.50
2023-02-03T12:00:19.194Z,2.10
2023-02-03T12:01:15.140Z,1.90
2023-02-03T12:02:15.304Z,1.50
2023-02-03T12:03:14.970Z,2.00
2023-02-03T12:04:15.116Z,2.00
2023-02-03T12:05:14.875Z,1.80
2023-02-03T12:06:14.943Z,2.00
2023-02-03T12:07:15.020Z,2.10
2023-02-03T12:08:14.866Z,1.90
2023-02-03T12:09:14.891Z,1.90
2023-02-03T12:10:14.913Z,1.40
2023-02-03T12:11:15.031Z,1.50
2023-02-03T12:12:14.802Z,2.20
2023-02-03T12:13:14.932Z,1.80
2023-02-03T12:14:18.168Z,1.30
2023-02-03T12:15:14.749Z,2.00
2023-02-03T12:16:14.765Z,1.80
2023-02-03T12:17:14.998Z,2.70
2023-02-03T12:18:18.996Z,1.80
2023-02-03T12:19:14.751Z,1.50
2023-02-03T12:20:14.791Z,1.80
2023-02-03T12:21:14.739Z,1.80
2023-02-03T12:22:14.721Z,2.10
2023-02-03T12:23:14.658Z,2.10
2023-02-03T12:24:14.710Z,1.60
2023-02-03T12:25:14.609Z,2.10
2023-02-03T12:26:14.600Z,1.40
2023-02-03T12:27:14.794Z,1.50
2023-02-03T12:28:27.271Z,1.40
2023-02-03T12:29:15.578Z,1.80
2023-02-03T12:30:14.549Z,1.70
2023-02-03T12:31:14.616Z,1.80
2023-02-03T12:32:14.568Z,2.00
2023-02-03T12:33:14.509Z,1.80
2023-02-03T12:34:14.499Z,1.90
2023-02-03T12:35:14.482Z,1.10
2023-02-03T12:36:14.459Z,1.60
2023-02-03T12:37:14.477Z,1.20
2023-02-03T12:38:14.443Z,1.60
2023-02-03T12:39:14.421Z,1.20
2023-02-03T12:40:14.450Z,1.20
2023-02-03T12:41:14.404Z,1.60
2023-02-03T12:42:14.419Z,1.20
2023-02-03T12:43:14.379Z,1.60
2023-02-03T12:44:14.356Z,1.40
2023-02-03T12:45:14.469Z,1.10
2023-02-03T12:46:15.055Z,1.40
2023-02-03T12:47:15.857Z,1.20
2023-02-03T12:48:14.408Z,1.60
2023-02-03T12:49:14.358Z,1.40
2023-02-03T12:50:14.366Z,1.30
2023-02-03T12:51:18.437Z,1.10
2023-02-03T12:52:14.409Z,1.30
2023-02-03T12:53:14.290Z,1.20
2023-02-03T12:54:14.257Z,1.20
2023-02-03T12:55:14.258Z,1.30
2023-02-03T12:56:14.287Z,1.30
2023-02-03T12:57:14.275Z,1.40
2023-02-03T12:58:14.178Z,1.30
2023-02-03T12:59:14.228Z,1.40
2023-02-03T13:00:14.290Z,1.30
2023-02-03T13:01:14.245Z,1.10
2023-02-03T13:02:14.179Z,1.10
2023-02-03T13:03:14.098Z,1.30
2023-02-03T13:04:14.106Z,1.30
2023-02-03T13:05:14.076Z,2.20
2023-02-03T13:06:14.113Z,1.70
2023-02-03T13:07:14.099Z,2.10
2023-02-03T13:08:14.268Z,1.60
2023-02-03T13:09:14.301Z,1.40
2023-02-03T13:10:14.775Z,1.30
2023-02-03T13:11:15.444Z,1.30
2023-02-03T13:12:14.135Z,1.50
2023-02-03T13:13:14.158Z,1.40
2023-02-03T13:14:15.667Z,1.20
2023-02-03T13:15:14.519Z,1.30
2023-02-03T13:16:14.202Z,1.70